Washington, DC (20557)

2:31 AM EDT on July 27, 2016 (GMT -0400)
Capitol Hill | | Change Station

Elev 72 ft 38.88 °N, 76.99 °W | Updated 7 seconds ago

Mostly Cloudy
Mostly Cloudy
82.9 °F
Feels Like 90 °F
N
0.4
Wind Variable Wind from SW
Gusts 2.5 mph

Today
High -- | Low -- °F
--% Chance of Precip.
Yesterday
High -- | Low -- °F
Precip. -- in
Pressure 29.94 in
Visibility 10.0 miles
Clouds Mostly Cloudy 14000 ft
Mostly Cloudy 25000 ft
Heat Index 90 °F
Dew Point 75 °F
Humidity 76%
Rainfall 0.00 in
Snow Depth Not available.
6:05 AM 8:23 PM
Waning Gibbous, 46% visible
METAR KDCA 270552Z 27006KT 10SM BKN140 BKN250 28/23 A2994 RMK AO2 SLP138 T02830228 10328 20283 50001
Pressure 29.94 in
Visibility 10.0 miles
Clouds Mostly Cloudy 14000 ft
Mostly Cloudy 25000 ft
Heat Index 90 °F
Dew Point 75 °F
Humidity 76%
Rainfall 0.00 in
Snow Depth Not available.
6:05 AM 8:23 PM
Waning Gibbous, 46% visible
METAR KDCA 270552Z 27006KT 10SM BKN140 BKN250 28/23 A2994 RMK AO2 SLP138 T02830228 10328 20283 50001

10-Day Weather Forecast

Almanac

Astronomy

Jul. 27, 2016 Rise Set
Actual Time
Civil Twilight
Nautical Twilight
Astronomical Twilight
Moon
Length of Visible Light
Length of Day
Tomorrow will be .
, % of the Moon is Illuminated

Today's Extremes

State Highs State Lows

Community

WunderPhotos

Upload Photos

1,927,818 photos uploaded!

WunderBlog® & News

Nearby

Air Quality

  Air Quality AQ Index Pollutant
Not available.

Snow Depth

Station Depth Elevation

Earthquake Activity

City Distance Mag. Time & Date
Minimum magnitude displayed is 2.5.

Coastal Water Temperatures

Place Temperature

Stations

Nearby Weather Stations

Station Location Temp. Windchill Dew Point Humidity Wind Precip. Elev Updated Type
                   

Watches & Warnings

There are currently no watches in effect.